GIA202 WIII-WAHI
Flight info
| Callsign | GIA202 |
|---|---|
| Flight time | 0h 48m |
| Altitude | 31000 |
| Route | PW W17 CLP |
| Aircraft | B738/M-SDE2E3FGHIRWXY/LB1 |
Departure
| Time | 2026-04-25 06:42 |
|---|---|
| Airport | Soekarno-Hatta International Airport (WIII) |
Arrival
| Time | 2026-04-25 07:31 |
|---|---|
| Airport | Yogyakarta International Airport (WAHI) |
| Time | Latitude | Longitude | Altitude | Speed | Heading |
|---|---|---|---|---|---|
| 2026-04-25 06:15 | -6.11766 | 106.65938 | 37 ft | 0 kts | 247° |
| 2026-04-25 06:31 | -6.11766 | 106.65939 | 37 ft | 1 kts | 247° |
| 2026-04-25 06:31 | -6.11760 | 106.65952 | 37 ft | 3 kts | 252° |
| 2026-04-25 06:31 | -6.11755 | 106.65972 | 36 ft | 3 kts | 264° |
| 2026-04-25 06:32 | -6.11755 | 106.65991 | 37 ft | 3 kts | 286° |
| 2026-04-25 06:32 | -6.11763 | 106.66007 | 34 ft | 3 kts | 327° |
| 2026-04-25 06:32 | -6.11768 | 106.66010 | 34 ft | 0 kts | 339° |
| 2026-04-25 06:35 | -6.11763 | 106.66008 | 34 ft | 2 kts | 339° |
| 2026-04-25 06:35 | -6.11730 | 106.65995 | 36 ft | 8 kts | 339° |
| 2026-04-25 06:35 | -6.11658 | 106.65967 | 36 ft | 14 kts | 338° |
| 2026-04-25 06:36 | -6.11555 | 106.65920 | 37 ft | 18 kts | 335° |
| 2026-04-25 06:36 | -6.11524 | 106.65816 | 37 ft | 18 kts | 250° |
| 2026-04-25 06:36 | -6.11570 | 106.65701 | 37 ft | 17 kts | 248° |
| 2026-04-25 06:36 | -6.11615 | 106.65589 | 37 ft | 17 kts | 248° |
| 2026-04-25 06:37 | -6.11658 | 106.65482 | 36 ft | 16 kts | 248° |
| 2026-04-25 06:37 | -6.11699 | 106.65379 | 35 ft | 16 kts | 248° |
| 2026-04-25 06:37 | -6.11739 | 106.65279 | 38 ft | 15 kts | 248° |
| 2026-04-25 06:37 | -6.11777 | 106.65184 | 38 ft | 14 kts | 248° |
| 2026-04-25 06:38 | -6.11813 | 106.65093 | 38 ft | 14 kts | 248° |
| 2026-04-25 06:38 | -6.11848 | 106.65006 | 36 ft | 13 kts | 248° |
| 2026-04-25 06:38 | -6.11882 | 106.64923 | 38 ft | 13 kts | 248° |
| 2026-04-25 06:38 | -6.11914 | 106.64841 | 38 ft | 12 kts | 248° |
| 2026-04-25 06:39 | -6.11946 | 106.64761 | 38 ft | 12 kts | 249° |
| 2026-04-25 06:39 | -6.11977 | 106.64680 | 38 ft | 14 kts | 249° |
| 2026-04-25 06:39 | -6.12020 | 106.64573 | 37 ft | 18 kts | 248° |
| 2026-04-25 06:39 | -6.12068 | 106.64455 | 38 ft | 18 kts | 248° |
| 2026-04-25 06:40 | -6.12114 | 106.64341 | 38 ft | 17 kts | 249° |
| 2026-04-25 06:40 | -6.12157 | 106.64230 | 38 ft | 17 kts | 248° |
| 2026-04-25 06:40 | -6.12199 | 106.64124 | 38 ft | 15 kts | 246° |
| 2026-04-25 06:40 | -6.12236 | 106.64032 | 37 ft | 14 kts | 248° |
| 2026-04-25 06:41 | -6.12257 | 106.63954 | 39 ft | 11 kts | 272° |
| 2026-04-25 06:41 | -6.12221 | 106.63893 | 40 ft | 9 kts | 328° |
| 2026-04-25 06:41 | -6.12164 | 106.63895 | 39 ft | 9 kts | 20° |
| 2026-04-25 06:41 | -6.12082 | 106.63949 | 40 ft | 21 kts | 50° |
| 2026-04-25 06:42 | -6.11971 | 106.64209 | 39 ft | 74 kts | 68° |
| 2026-04-25 06:42 | -6.11687 | 106.64911 | 43 ft | 139 kts | 66° |
| 2026-04-25 06:42 | -6.11277 | 106.65931 | 382 ft | 167 kts | 67° |
| 2026-04-25 06:42 | -6.10882 | 106.67025 | 1219 ft | 165 kts | 69° |
| 2026-04-25 06:43 | -6.10286 | 106.67984 | 2122 ft | 162 kts | 46° |
| 2026-04-25 06:43 | -6.09433 | 106.68838 | 2617 ft | 188 kts | 47° |
| 2026-04-25 06:43 | -6.08459 | 106.69851 | 2812 ft | 215 kts | 47° |
| 2026-04-25 06:43 | -6.07369 | 106.70987 | 3110 ft | 233 kts | 48° |
| 2026-04-25 06:44 | -6.06193 | 106.72219 | 3417 ft | 253 kts | 49° |
| 2026-04-25 06:44 | -6.04960 | 106.73522 | 4077 ft | 260 kts | 49° |
| 2026-04-25 06:44 | -6.03723 | 106.74842 | 4699 ft | 261 kts | 49° |
| 2026-04-25 06:44 | -6.02479 | 106.76178 | 4958 ft | 262 kts | 49° |
| 2026-04-25 06:45 | -6.01228 | 106.77524 | 4965 ft | 263 kts | 49° |
| 2026-04-25 06:45 | -6.00021 | 106.78895 | 4964 ft | 261 kts | 58° |
| 2026-04-25 06:45 | -5.99402 | 106.80574 | 4983 ft | 258 kts | 84° |
| 2026-04-25 06:45 | -5.99600 | 106.82358 | 5017 ft | 262 kts | 108° |
| 2026-04-25 06:46 | -6.00486 | 106.83948 | 5589 ft | 270 kts | 129° |
| 2026-04-25 06:46 | -6.01900 | 106.85205 | 6456 ft | 272 kts | 139° |
| 2026-04-25 06:46 | -6.03415 | 106.86369 | 7208 ft | 277 kts | 140° |
| 2026-04-25 06:46 | -6.04966 | 106.87535 | 7967 ft | 281 kts | 140° |
| 2026-04-25 06:47 | -6.06543 | 106.88719 | 8750 ft | 284 kts | 140° |
| 2026-04-25 06:47 | -6.08133 | 106.89917 | 9529 ft | 288 kts | 140° |
| 2026-04-25 06:47 | -6.09746 | 106.91136 | 10207 ft | 293 kts | 140° |
| 2026-04-25 06:47 | -6.11434 | 106.92419 | 10455 ft | 316 kts | 140° |
| 2026-04-25 06:48 | -6.13247 | 106.93802 | 10628 ft | 338 kts | 140° |
| 2026-04-25 06:48 | -6.15180 | 106.95279 | 10799 ft | 358 kts | 140° |
| 2026-04-25 06:48 | -6.17188 | 106.96810 | 11253 ft | 366 kts | 140° |
| 2026-04-25 06:48 | -6.19227 | 106.98366 | 11848 ft | 369 kts | 140° |
| 2026-04-25 06:49 | -6.21278 | 106.99929 | 12531 ft | 370 kts | 140° |
| 2026-04-25 06:49 | -6.23331 | 107.01497 | 13209 ft | 372 kts | 140° |
| 2026-04-25 06:49 | -6.25382 | 107.03064 | 13772 ft | 377 kts | 141° |
| 2026-04-25 06:49 | -6.27487 | 107.04675 | 14240 ft | 383 kts | 141° |
| 2026-04-25 06:50 | -6.29619 | 107.06306 | 14798 ft | 387 kts | 141° |
| 2026-04-25 06:50 | -6.31768 | 107.07950 | 15352 ft | 390 kts | 141° |
| 2026-04-25 06:50 | -6.33941 | 107.09613 | 15888 ft | 395 kts | 141° |
| 2026-04-25 06:50 | -6.36129 | 107.11287 | 16571 ft | 392 kts | 141° |
| 2026-04-25 06:51 | -6.38280 | 107.12932 | 17591 ft | 383 kts | 141° |
| 2026-04-25 06:51 | -6.40381 | 107.14538 | 18573 ft | 374 kts | 141° |
| 2026-04-25 06:51 | -6.42429 | 107.16105 | 19457 ft | 367 kts | 141° |
| 2026-04-25 06:51 | -6.44466 | 107.17665 | 20070 ft | 370 kts | 141° |
| 2026-04-25 06:52 | -6.46530 | 107.19247 | 20575 ft | 375 kts | 141° |
| 2026-04-25 06:52 | -6.48619 | 107.20848 | 21107 ft | 379 kts | 141° |
| 2026-04-25 06:52 | -6.50727 | 107.22463 | 21657 ft | 382 kts | 141° |
| 2026-04-25 06:52 | -6.52853 | 107.24092 | 22206 ft | 385 kts | 141° |
| 2026-04-25 06:53 | -6.54992 | 107.25731 | 22729 ft | 389 kts | 142° |
| 2026-04-25 06:53 | -6.57130 | 107.27369 | 23192 ft | 394 kts | 142° |
| 2026-04-25 06:53 | -6.59379 | 107.29094 | 23268 ft | 409 kts | 141° |
| 2026-04-25 06:53 | -6.61643 | 107.30830 | 23368 ft | 421 kts | 141° |
| 2026-04-25 06:54 | -6.64006 | 107.32641 | 23441 ft | 432 kts | 141° |
| 2026-04-25 06:54 | -6.66429 | 107.34499 | 23501 ft | 442 kts | 142° |
| 2026-04-25 06:54 | -6.68902 | 107.36394 | 23645 ft | 449 kts | 141° |
| 2026-04-25 06:54 | -6.71396 | 107.38306 | 23903 ft | 452 kts | 142° |
| 2026-04-25 06:55 | -6.73895 | 107.40222 | 24220 ft | 452 kts | 142° |
| 2026-04-25 06:55 | -6.76406 | 107.42148 | 24530 ft | 453 kts | 142° |
| 2026-04-25 06:55 | -6.78916 | 107.44074 | 24812 ft | 455 kts | 142° |
| 2026-04-25 06:55 | -6.81435 | 107.46007 | 25072 ft | 457 kts | 142° |
| 2026-04-25 06:56 | -6.83966 | 107.47948 | 25389 ft | 458 kts | 142° |
| 2026-04-25 06:56 | -6.86429 | 107.49987 | 25668 ft | 458 kts | 135° |
| 2026-04-25 06:56 | -6.88552 | 107.52383 | 25944 ft | 459 kts | 127° |
| 2026-04-25 06:56 | -6.90292 | 107.55078 | 26216 ft | 460 kts | 117° |
| 2026-04-25 06:57 | -6.91732 | 107.57954 | 26571 ft | 460 kts | 116° |
| 2026-04-25 06:57 | -6.93150 | 107.60850 | 26792 ft | 462 kts | 116° |
| 2026-04-25 06:57 | -6.94574 | 107.63758 | 26890 ft | 465 kts | 116° |
| 2026-04-25 06:57 | -6.95999 | 107.66650 | 26905 ft | 469 kts | 116° |
| 2026-04-25 06:58 | -6.97462 | 107.69595 | 26912 ft | 472 kts | 116° |
| 2026-04-25 06:58 | -6.98941 | 107.72557 | 26911 ft | 475 kts | 117° |
| 2026-04-25 06:58 | -7.00431 | 107.75528 | 26907 ft | 478 kts | 117° |
| 2026-04-25 06:58 | -7.01933 | 107.78519 | 26907 ft | 478 kts | 117° |
| 2026-04-25 06:59 | -7.03435 | 107.81507 | 26901 ft | 478 kts | 117° |
| 2026-04-25 06:59 | -7.04937 | 107.84495 | 26895 ft | 478 kts | 117° |
| 2026-04-25 06:59 | -7.06437 | 107.87480 | 26897 ft | 478 kts | 117° |
| 2026-04-25 06:59 | -7.07937 | 107.90467 | 26882 ft | 478 kts | 117° |
| 2026-04-25 07:00 | -7.09438 | 107.93458 | 26882 ft | 478 kts | 117° |
| 2026-04-25 07:00 | -7.10935 | 107.96441 | 26882 ft | 477 kts | 116° |
| 2026-04-25 07:00 | -7.12432 | 107.99425 | 26885 ft | 477 kts | 116° |
| 2026-04-25 07:00 | -7.13897 | 108.02347 | 26876 ft | 477 kts | 116° |
| 2026-04-25 07:01 | -7.15391 | 108.05326 | 26874 ft | 477 kts | 116° |
| 2026-04-25 07:01 | -7.16887 | 108.08310 | 26877 ft | 477 kts | 116° |
| 2026-04-25 07:01 | -7.18379 | 108.11287 | 26877 ft | 476 kts | 116° |
| 2026-04-25 07:01 | -7.19873 | 108.14268 | 26876 ft | 477 kts | 116° |
| 2026-04-25 07:02 | -7.21346 | 108.17208 | 26863 ft | 477 kts | 116° |
| 2026-04-25 07:02 | -7.22840 | 108.20191 | 26852 ft | 477 kts | 116° |
| 2026-04-25 07:02 | -7.24334 | 108.23173 | 26858 ft | 477 kts | 116° |
| 2026-04-25 07:02 | -7.25828 | 108.26157 | 26862 ft | 477 kts | 116° |
| 2026-04-25 07:03 | -7.27323 | 108.29142 | 26864 ft | 478 kts | 116° |
| 2026-04-25 07:03 | -7.28821 | 108.32136 | 26861 ft | 478 kts | 116° |
| 2026-04-25 07:03 | -7.30318 | 108.35126 | 26859 ft | 478 kts | 116° |
| 2026-04-25 07:03 | -7.31816 | 108.38120 | 26861 ft | 479 kts | 116° |
| 2026-04-25 07:04 | -7.33313 | 108.41114 | 26861 ft | 479 kts | 116° |
| 2026-04-25 07:04 | -7.34813 | 108.44112 | 26851 ft | 479 kts | 116° |
| 2026-04-25 07:04 | -7.36314 | 108.47113 | 26839 ft | 479 kts | 116° |
| 2026-04-25 07:04 | -7.37812 | 108.50110 | 26839 ft | 479 kts | 116° |
| 2026-04-25 07:05 | -7.39309 | 108.53105 | 26843 ft | 479 kts | 116° |
| 2026-04-25 07:05 | -7.40807 | 108.56103 | 26842 ft | 479 kts | 116° |
| 2026-04-25 07:05 | -7.42302 | 108.59094 | 26837 ft | 478 kts | 116° |
| 2026-04-25 07:05 | -7.43799 | 108.62092 | 26837 ft | 478 kts | 116° |
| 2026-04-25 07:06 | -7.45295 | 108.65087 | 26837 ft | 478 kts | 116° |
| 2026-04-25 07:06 | -7.46769 | 108.68038 | 26838 ft | 478 kts | 116° |
| 2026-04-25 07:06 | -7.48262 | 108.71030 | 26831 ft | 478 kts | 116° |
| 2026-04-25 07:06 | -7.49755 | 108.74020 | 26829 ft | 477 kts | 116° |
| 2026-04-25 07:07 | -7.51247 | 108.77009 | 26829 ft | 477 kts | 116° |
| 2026-04-25 07:07 | -7.52741 | 108.80005 | 26828 ft | 477 kts | 116° |
| 2026-04-25 07:07 | -7.54233 | 108.82995 | 26832 ft | 477 kts | 116° |
| 2026-04-25 07:07 | -7.55723 | 108.85983 | 26832 ft | 477 kts | 116° |
| 2026-04-25 07:08 | -7.57219 | 108.88985 | 26830 ft | 477 kts | 116° |
| 2026-04-25 07:08 | -7.58709 | 108.91973 | 26830 ft | 478 kts | 116° |
| 2026-04-25 07:08 | -7.60201 | 108.94968 | 26834 ft | 478 kts | 116° |
| 2026-04-25 07:08 | -7.61675 | 108.97927 | 26831 ft | 478 kts | 116° |
| 2026-04-25 07:09 | -7.63141 | 109.00868 | 26833 ft | 478 kts | 116° |
| 2026-04-25 07:09 | -7.64518 | 109.03920 | 26816 ft | 478 kts | 107° |
| 2026-04-25 07:09 | -7.65120 | 109.07202 | 26853 ft | 477 kts | 95° |
| 2026-04-25 07:09 | -7.65452 | 109.10536 | 26829 ft | 478 kts | 96° |
| 2026-04-25 07:10 | -7.65812 | 109.13863 | 26823 ft | 478 kts | 96° |
| 2026-04-25 07:10 | -7.66197 | 109.17192 | 26821 ft | 478 kts | 96° |
| 2026-04-25 07:10 | -7.66599 | 109.20522 | 26823 ft | 478 kts | 96° |
| 2026-04-25 07:10 | -7.67011 | 109.23846 | 26828 ft | 478 kts | 97° |
| 2026-04-25 07:11 | -7.67427 | 109.27172 | 26823 ft | 478 kts | 97° |
| 2026-04-25 07:11 | -7.67844 | 109.30499 | 26824 ft | 478 kts | 97° |
| 2026-04-25 07:11 | -7.68259 | 109.33825 | 26822 ft | 478 kts | 97° |
| 2026-04-25 07:11 | -7.68673 | 109.37150 | 26823 ft | 478 kts | 96° |
| 2026-04-25 07:12 | -7.69087 | 109.40482 | 26829 ft | 478 kts | 96° |
| 2026-04-25 07:12 | -7.69911 | 109.47132 | 26825 ft | 478 kts | 97° |
| 2026-04-25 07:12 | -7.70323 | 109.50469 | 26127 ft | 484 kts | 96° |
| 2026-04-25 07:13 | -7.70737 | 109.53823 | 25237 ft | 482 kts | 97° |
| 2026-04-25 07:13 | -7.71152 | 109.57176 | 24245 ft | 483 kts | 96° |
| 2026-04-25 07:13 | -7.71559 | 109.60474 | 23474 ft | 478 kts | 97° |
| 2026-04-25 07:13 | -7.71968 | 109.63791 | 22561 ft | 474 kts | 97° |
| 2026-04-25 07:14 | -7.72372 | 109.67067 | 21757 ft | 468 kts | 96° |
| 2026-04-25 07:14 | -7.72766 | 109.70253 | 20899 ft | 450 kts | 96° |
| 2026-04-25 07:14 | -7.73145 | 109.73331 | 20154 ft | 434 kts | 96° |
| 2026-04-25 07:14 | -7.73512 | 109.76314 | 19466 ft | 426 kts | 96° |
| 2026-04-25 07:15 | -7.73875 | 109.79270 | 18771 ft | 424 kts | 96° |
| 2026-04-25 07:15 | -7.74237 | 109.82216 | 18062 ft | 422 kts | 96° |
| 2026-04-25 07:15 | -7.74595 | 109.85136 | 17262 ft | 419 kts | 96° |
| 2026-04-25 07:15 | -7.75017 | 109.88025 | 16523 ft | 415 kts | 103° |
| 2026-04-25 07:16 | -7.76165 | 109.90679 | 15814 ft | 413 kts | 123° |
| 2026-04-25 07:16 | -7.78075 | 109.92820 | 15126 ft | 412 kts | 139° |
| 2026-04-25 07:16 | -7.80509 | 109.94289 | 14759 ft | 405 kts | 155° |
| 2026-04-25 07:16 | -7.83205 | 109.95025 | 14447 ft | 398 kts | 170° |
| 2026-04-25 07:17 | -7.86001 | 109.95088 | 14233 ft | 411 kts | 185° |
| 2026-04-25 07:17 | -7.88826 | 109.94460 | 14032 ft | 419 kts | 194° |
| 2026-04-25 07:17 | -7.91646 | 109.93664 | 13776 ft | 420 kts | 194° |
| 2026-04-25 07:17 | -7.93505 | 109.93130 | 13615 ft | 418 kts | 194° |
| 2026-04-25 07:18 | -7.97238 | 109.92085 | 13272 ft | 415 kts | 193° |
| 2026-04-25 07:18 | -7.99069 | 109.91588 | 13104 ft | 407 kts | 193° |
| 2026-04-25 07:18 | -8.02605 | 109.90641 | 12761 ft | 388 kts | 193° |
| 2026-04-25 07:18 | -8.04366 | 109.90175 | 12377 ft | 385 kts | 193° |
| 2026-04-25 07:19 | -8.06894 | 109.89512 | 11970 ft | 373 kts | 193° |
| 2026-04-25 07:19 | -8.09353 | 109.88865 | 11473 ft | 358 kts | 193° |
| 2026-04-25 07:19 | -8.11730 | 109.88260 | 10995 ft | 345 kts | 188° |
| 2026-04-25 07:19 | -8.14806 | 109.88476 | 10383 ft | 325 kts | 158° |
| 2026-04-25 07:20 | -8.16131 | 109.89139 | 10098 ft | 316 kts | 144° |
| 2026-04-25 07:20 | -8.17709 | 109.90598 | 9901 ft | 296 kts | 127° |
| 2026-04-25 07:20 | -8.18789 | 109.92264 | 9796 ft | 276 kts | 112° |
| 2026-04-25 07:20 | -8.19385 | 109.94084 | 9354 ft | 274 kts | 102° |
| 2026-04-25 07:21 | -8.19634 | 109.95999 | 8814 ft | 279 kts | 83° |
| 2026-04-25 07:21 | -8.19014 | 109.97844 | 8412 ft | 280 kts | 57° |
| 2026-04-25 07:21 | -8.17677 | 109.99251 | 8102 ft | 279 kts | 35° |
| 2026-04-25 07:21 | -8.15947 | 110.00025 | 7825 ft | 278 kts | 15° |
| 2026-04-25 07:22 | -8.14092 | 110.00442 | 7522 ft | 277 kts | 13° |
| 2026-04-25 07:22 | -8.12168 | 110.00491 | 7181 ft | 280 kts | 349° |
| 2026-04-25 07:22 | -8.10361 | 109.99765 | 6919 ft | 281 kts | 332° |
| 2026-04-25 07:22 | -8.08693 | 109.98740 | 6618 ft | 280 kts | 331° |
| 2026-04-25 07:23 | -8.07033 | 109.97719 | 6321 ft | 279 kts | 331° |
| 2026-04-25 07:23 | -8.05379 | 109.96714 | 6047 ft | 277 kts | 331° |
| 2026-04-25 07:23 | -8.03741 | 109.95723 | 5626 ft | 272 kts | 332° |
| 2026-04-25 07:23 | -8.02146 | 109.94764 | 5453 ft | 258 kts | 331° |
| 2026-04-25 07:24 | -8.00643 | 109.93861 | 5350 ft | 244 kts | 332° |
| 2026-04-25 07:24 | -7.99192 | 109.92992 | 4932 ft | 245 kts | 332° |
| 2026-04-25 07:24 | -7.97745 | 109.92125 | 4741 ft | 234 kts | 332° |
| 2026-04-25 07:24 | -7.96398 | 109.91317 | 4640 ft | 216 kts | 332° |
| 2026-04-25 07:25 | -7.95152 | 109.90570 | 4506 ft | 201 kts | 332° |
| 2026-04-25 07:25 | -7.93991 | 109.89874 | 4372 ft | 187 kts | 333° |
| 2026-04-25 07:25 | -7.92788 | 109.89375 | 3914 ft | 190 kts | 351° |
| 2026-04-25 07:25 | -7.91486 | 109.89112 | 3489 ft | 191 kts | 350° |
| 2026-04-25 07:26 | -7.90270 | 109.88829 | 3370 ft | 169 kts | 350° |
| 2026-04-25 07:26 | -7.89173 | 109.88659 | 3060 ft | 158 kts | 9° |
| 2026-04-25 07:26 | -7.88264 | 109.89162 | 2660 ft | 149 kts | 51° |
| 2026-04-25 07:26 | -7.87638 | 109.90018 | 2144 ft | 155 kts | 54° |
| 2026-04-25 07:27 | -7.86986 | 109.90877 | 1753 ft | 154 kts | 55° |
| 2026-04-25 07:27 | -7.86329 | 109.91713 | 1637 ft | 153 kts | 53° |
| 2026-04-25 07:27 | -7.85913 | 109.92660 | 1504 ft | 147 kts | 97° |
| 2026-04-25 07:27 | -7.86280 | 109.93596 | 1506 ft | 148 kts | 116° |
| 2026-04-25 07:28 | -7.86540 | 109.94621 | 1443 ft | 149 kts | 105° |
| 2026-04-25 07:28 | -7.86852 | 109.95607 | 1411 ft | 147 kts | 112° |
| 2026-04-25 07:28 | -7.87208 | 109.96575 | 1356 ft | 148 kts | 114° |
| 2026-04-25 07:28 | -7.87561 | 109.97538 | 1332 ft | 145 kts | 112° |
| 2026-04-25 07:29 | -7.87905 | 109.98491 | 1218 ft | 146 kts | 113° |
| 2026-04-25 07:29 | -7.88251 | 109.99443 | 1024 ft | 143 kts | 112° |
| 2026-04-25 07:29 | -7.88592 | 110.00385 | 863 ft | 140 kts | 112° |
| 2026-04-25 07:29 | -7.88932 | 110.01322 | 654 ft | 149 kts | 112° |
| 2026-04-25 07:30 | -7.89286 | 110.02306 | 470 ft | 147 kts | 113° |
| 2026-04-25 07:30 | -7.89629 | 110.03249 | 318 ft | 141 kts | 112° |
| 2026-04-25 07:30 | -7.89972 | 110.04186 | 107 ft | 142 kts | 112° |
| 2026-04-25 07:30 | -7.90297 | 110.05082 | 38 ft | 122 kts | 110° |
| 2026-04-25 07:31 | -7.90537 | 110.05743 | 44 ft | 79 kts | 110° |
| 2026-04-25 07:31 | -7.90652 | 110.06056 | 40 ft | 32 kts | 105° |
| 2026-04-25 07:31 | -7.90665 | 110.06198 | 41 ft | 14 kts | 90° |
| 2026-04-25 07:31 | -7.90656 | 110.06280 | 42 ft | 10 kts | 77° |
| 2026-04-25 07:32 | -7.90650 | 110.06304 | 42 ft | 0 kts | 75° |
| 2026-04-25 07:32 | -7.90637 | 110.06354 | 42 ft | 16 kts | 79° |
| 2026-04-25 07:32 | -7.90602 | 110.06469 | 39 ft | 19 kts | 36° |
| 2026-04-25 07:32 | -7.90476 | 110.06503 | 37 ft | 19 kts | 342° |
| 2026-04-25 07:33 | -7.90410 | 110.06390 | 36 ft | 19 kts | 290° |
| 2026-04-25 07:33 | -7.90369 | 110.06272 | 37 ft | 16 kts | 290° |
| 2026-04-25 07:33 | -7.90332 | 110.06173 | 38 ft | 15 kts | 291° |
| 2026-04-25 07:33 | -7.90296 | 110.06079 | 35 ft | 14 kts | 290° |
| 2026-04-25 07:34 | -7.90263 | 110.05990 | 38 ft | 10 kts | 290° |
| 2026-04-25 07:34 | -7.90245 | 110.05941 | 38 ft | 4 kts | 290° |
| 2026-04-25 07:34 | -7.90226 | 110.05922 | 38 ft | 5 kts | 345° |
| 2026-04-25 07:34 | -7.90187 | 110.05928 | 37 ft | 6 kts | 18° |
| 2026-04-25 07:35 | -7.90148 | 110.05942 | 37 ft | 3 kts | 20° |
| 2026-04-25 07:35 | -7.90135 | 110.05947 | 37 ft | 0 kts | 21° |